(°C)
20°
20°
20°
19°
18°
17°
16°
(°C)
18°
18°
18°
18°
17°
16°
15°
ZZW
ZZW
ZZW
ZZW
ZZW
Z
ZO
(km/u)
10-27
10-26
9-24
8-21
7-17
6-13
5-10
(mm)
0
0
0
0
0
0
0
(%)
1
1
0
0
0
0
0

Zonverhoging

/ 31.4°
sun-icon
UV 2
07:26
18:22
Wassende maan (132°)
17:21
02:51

METAR voor Renton (KRNT)

Tijd Voorwaarden Temperatuur/
Dauwpunt
Wind Zicht Weer Wolken Luchtdruk Wijzigen Ruw
VFR 19.4°C / 8.3°C 190º variable 160º to 230º 7kt >10km - Broken Clouds 8000ft 1014 - KRNT 162053Z 19007KT 160V230 10SM BKN080 19/08 A2993 RMK AO2 SLP140 T01940083 58025
VFR 18.3°C / 8.3°C 150º 4kt >10km - Overcast 8500ft 1015 - KRNT 161953Z 15004KT 10SM OVC085 18/08 A2996 RMK AO2 SLP151 T01830083
VFR 17.2°C / 8.3°C 170º 7kt >10km - Broken Clouds 7500ft
Overcast 8500ft
1015 - KRNT 161853Z 17007KT 10SM BKN075 OVC085 17/08 A2998 RMK AO2 SLP158 T01720083
VFR 15°C / 8.9°C variable 0kt >10km - Few Clouds 6500ft
Overcast 8000ft
1016 - KRNT 161753Z 00000KT 10SM FEW065 OVC080 15/09 A3000 RMK AO2 SLP165 T01500089 10150 20128 55003
VFR 13.9°C / 8.3°C 180º 4kt >10km - Broken Clouds 6000ft
Overcast 8500ft
1016 - KRNT 161653Z 18004KT 10SM BKN060 OVC085 14/08 A3000 RMK AO2 SLP163 T01390083
VFR 13.3°C / 8.3°C 170º 5kt >10km - Broken Clouds 6500ft
Overcast 8000ft
1016 - KRNT 161553Z 17005KT 10SM BKN065 OVC080 13/08 A3000 RMK AO2 SLP165 T01330083
VFR 13.9°C / 7.8°C 160º 7kt >10km - Broken Clouds 3800ft
Broken Clouds 6000ft
Overcast 7500ft
1016 - KRNT 161453Z 16007KT 10SM BKN038 BKN060 OVC075 14/08 A3001 RMK AO2 SLP168 T01390078 58013
VFR 13.3°C / 7.8°C 180º 5kt >10km - Overcast 3900ft 1017 - KRNT 161353Z 18005KT 10SM OVC039 13/08 A3002 RMK AO2 SLP172 T01330078
VFR 13.3°C / 7.8°C 120º 4kt >10km - Overcast 4600ft 1017 - KRNT 161253Z AUTO 12004KT 10SM OVC046 13/08 A3004 RMK AO2 SLP177 T01330078
VFR 12.8°C / 8.3°C 130º 4kt >10km - Overcast 5500ft 1018 - KRNT 161153Z AUTO 13004KT 10SM OVC055 13/08 A3005 RMK AO2 SLP181 60000 T01280083 10139 20122 58014
VFR 12.8°C / 8.9°C variable 0kt >10km - Broken Clouds 5000ft
Overcast 11000ft
1018 - KRNT 161053Z AUTO 00000KT 10SM BKN050 OVC110 13/09 A3006 RMK AO2 SLP185 T01280089
VFR 12.8°C / 8.3°C 150º 5kt >10km - Overcast 8000ft 1019 - KRNT 160953Z AUTO 15005KT 10SM OVC080 13/08 A3008 RMK AO2 SLP191 T01280083
VFR 12.8°C / 8.9°C 180º 4kt >10km 0.13mm precipitation Broken Clouds 8500ft
Overcast 12000ft
1019 - KRNT 160853Z AUTO 18004KT 10SM BKN085 OVC120 13/09 A3009 RMK AO2 RAB0754E34 SLP195 P0000 60000 T01280089 56009
VFR 13.9°C / 8.9°C variable 3kt >10km 0.13mm precipitation Scattered Clouds 5500ft
Broken Clouds 7000ft
Overcast 10000ft
1020 - KRNT 160753Z AUTO VRB03KT 10SM SCT055 BKN070 OVC100 14/09 A3011 RMK AO2 RAB03E24 SLP200 P0000 T01390089 401670111
VFR 13.3°C / 8.9°C 170º 4kt >10km - Scattered Clouds 6000ft
Overcast 8500ft
1019 - KRNT 160653Z AUTO 17004KT 10SM SCT060 OVC085 13/09 A3010 RMK AO2 SLP197 T01330089
VFR 13.9°C / 8.9°C 130º 3kt >10km - Overcast 5000ft 1020 - KRNT 160553Z AUTO 13003KT 10SM OVC050 14/09 A3012 RMK AO2 SLP204 T01390089 10161 20133 53006
VFR 13.9°C / 8.9°C 130º 4kt >10km - Overcast 5500ft 1020 - KRNT 160453Z AUTO 13004KT 10SM OVC055 14/09 A3011 RMK AO2 SLP200 T01390089
VFR 13.9°C / 8.9°C variable 0kt >10km - Few Clouds 6500ft
Overcast 9500ft
1019 - KRNT 160353Z AUTO 00000KT 10SM FEW065 OVC095 14/09 A3011 RMK AO2 SLP199 T01390089
VFR 13.9°C / 8.9°C 200º 4kt >10km - Broken Clouds 6000ft
Overcast 11000ft
1019 - KRNT 160253Z AUTO 20004KT 10SM BKN060 OVC110 14/09 A3010 RMK AO2 SLP198 T01390089 56005
VFR 13.9°C / 8.9°C variable 0kt >10km - Overcast 11000ft 1020 - KRNT 160153Z 00000KT 10SM OVC110 14/09 A3011 RMK AO2 SLP200 T01390089
VFR 14.4°C / 8.9°C variable 0kt >10km - Broken Clouds 12000ft 1020 - KRNT 160053Z 00000KT 10SM BKN120 14/09 A3011 RMK AO2 SLP201 T01440089
VFR 16.1°C / 7.2°C variable 0kt >10km - Overcast 12000ft 1020 - KRNT 152353Z 00000KT 10SM OVC120 16/07 A3012 RMK AO2 SLP203 T01610072 10167 20133 56008
VFR 16.7°C / 7.8°C 220º 3kt >10km - Few Clouds 4700ft
Scattered Clouds 6000ft
1020 - KRNT 152253Z 22003KT 10SM FEW047 SCT060 17/08 A3012 RMK AO2 SLP206 T01670078
VFR 16.1°C / 8.3°C 190º 7kt >10km - Few Clouds 11000ft 1020 - KRNT 152153Z 19007KT 10SM FEW110 16/08 A3013 RMK AO2 SLP207 T01610083

VFR

19.4°C / 8.3°C

[Meer]
Wind 190º variable 160º to 230º 7kt
Zicht >10km
Weer -
Wolken Broken Clouds 8000ft
Luchtdruk 1014
Wijzigen -
Ruw KRNT 162053Z 19007KT 160V230 10SM BKN080 19/08 A2993 RMK AO2 SLP140 T01940083 58025

VFR

18.3°C / 8.3°C

[Meer]
Wind 150º 4kt
Zicht >10km
Weer -
Wolken Overcast 8500ft
Luchtdruk 1015
Wijzigen -
Ruw KRNT 161953Z 15004KT 10SM OVC085 18/08 A2996 RMK AO2 SLP151 T01830083

VFR

17.2°C / 8.3°C

[Meer]
Wind 170º 7kt
Zicht >10km
Weer -
Wolken Broken Clouds 7500ft
Overcast 8500ft
Luchtdruk 1015
Wijzigen -
Ruw KRNT 161853Z 17007KT 10SM BKN075 OVC085 17/08 A2998 RMK AO2 SLP158 T01720083

VFR

15°C / 8.9°C

[Meer]
Wind variable 0kt
Zicht >10km
Weer -
Wolken Few Clouds 6500ft
Overcast 8000ft
Luchtdruk 1016
Wijzigen -
Ruw KRNT 161753Z 00000KT 10SM FEW065 OVC080 15/09 A3000 RMK AO2 SLP165 T01500089 10150 20128 55003

VFR

13.9°C / 8.3°C

[Meer]
Wind 180º 4kt
Zicht >10km
Weer -
Wolken Broken Clouds 6000ft
Overcast 8500ft
Luchtdruk 1016
Wijzigen -
Ruw KRNT 161653Z 18004KT 10SM BKN060 OVC085 14/08 A3000 RMK AO2 SLP163 T01390083

VFR

13.3°C / 8.3°C

[Meer]
Wind 170º 5kt
Zicht >10km
Weer -
Wolken Broken Clouds 6500ft
Overcast 8000ft
Luchtdruk 1016
Wijzigen -
Ruw KRNT 161553Z 17005KT 10SM BKN065 OVC080 13/08 A3000 RMK AO2 SLP165 T01330083

VFR

13.9°C / 7.8°C

[Meer]
Wind 160º 7kt
Zicht >10km
Weer -
Wolken Broken Clouds 3800ft
Broken Clouds 6000ft
Overcast 7500ft
Luchtdruk 1016
Wijzigen -
Ruw KRNT 161453Z 16007KT 10SM BKN038 BKN060 OVC075 14/08 A3001 RMK AO2 SLP168 T01390078 58013

VFR

13.3°C / 7.8°C

[Meer]
Wind 180º 5kt
Zicht >10km
Weer -
Wolken Overcast 3900ft
Luchtdruk 1017
Wijzigen -
Ruw KRNT 161353Z 18005KT 10SM OVC039 13/08 A3002 RMK AO2 SLP172 T01330078

VFR

13.3°C / 7.8°C

[Meer]
Wind 120º 4kt
Zicht >10km
Weer -
Wolken Overcast 4600ft
Luchtdruk 1017
Wijzigen -
Ruw KRNT 161253Z AUTO 12004KT 10SM OVC046 13/08 A3004 RMK AO2 SLP177 T01330078

VFR

12.8°C / 8.3°C

[Meer]
Wind 130º 4kt
Zicht >10km
Weer -
Wolken Overcast 5500ft
Luchtdruk 1018
Wijzigen -
Ruw KRNT 161153Z AUTO 13004KT 10SM OVC055 13/08 A3005 RMK AO2 SLP181 60000 T01280083 10139 20122 58014

VFR

12.8°C / 8.9°C

[Meer]
Wind variable 0kt
Zicht >10km
Weer -
Wolken Broken Clouds 5000ft
Overcast 11000ft
Luchtdruk 1018
Wijzigen -
Ruw KRNT 161053Z AUTO 00000KT 10SM BKN050 OVC110 13/09 A3006 RMK AO2 SLP185 T01280089

VFR

12.8°C / 8.3°C

[Meer]
Wind 150º 5kt
Zicht >10km
Weer -
Wolken Overcast 8000ft
Luchtdruk 1019
Wijzigen -
Ruw KRNT 160953Z AUTO 15005KT 10SM OVC080 13/08 A3008 RMK AO2 SLP191 T01280083

VFR

12.8°C / 8.9°C

[Meer]
Wind 180º 4kt
Zicht >10km
Weer 0.13mm precipitation
Wolken Broken Clouds 8500ft
Overcast 12000ft
Luchtdruk 1019
Wijzigen -
Ruw KRNT 160853Z AUTO 18004KT 10SM BKN085 OVC120 13/09 A3009 RMK AO2 RAB0754E34 SLP195 P0000 60000 T01280089 56009

VFR

13.9°C / 8.9°C

[Meer]
Wind variable 3kt
Zicht >10km
Weer 0.13mm precipitation
Wolken Scattered Clouds 5500ft
Broken Clouds 7000ft
Overcast 10000ft
Luchtdruk 1020
Wijzigen -
Ruw KRNT 160753Z AUTO VRB03KT 10SM SCT055 BKN070 OVC100 14/09 A3011 RMK AO2 RAB03E24 SLP200 P0000 T01390089 401670111

VFR

13.3°C / 8.9°C

[Meer]
Wind 170º 4kt
Zicht >10km
Weer -
Wolken Scattered Clouds 6000ft
Overcast 8500ft
Luchtdruk 1019
Wijzigen -
Ruw KRNT 160653Z AUTO 17004KT 10SM SCT060 OVC085 13/09 A3010 RMK AO2 SLP197 T01330089

VFR

13.9°C / 8.9°C

[Meer]
Wind 130º 3kt
Zicht >10km
Weer -
Wolken Overcast 5000ft
Luchtdruk 1020
Wijzigen -
Ruw KRNT 160553Z AUTO 13003KT 10SM OVC050 14/09 A3012 RMK AO2 SLP204 T01390089 10161 20133 53006

VFR

13.9°C / 8.9°C

[Meer]
Wind 130º 4kt
Zicht >10km
Weer -
Wolken Overcast 5500ft
Luchtdruk 1020
Wijzigen -
Ruw KRNT 160453Z AUTO 13004KT 10SM OVC055 14/09 A3011 RMK AO2 SLP200 T01390089

VFR

13.9°C / 8.9°C

[Meer]
Wind variable 0kt
Zicht >10km
Weer -
Wolken Few Clouds 6500ft
Overcast 9500ft
Luchtdruk 1019
Wijzigen -
Ruw KRNT 160353Z AUTO 00000KT 10SM FEW065 OVC095 14/09 A3011 RMK AO2 SLP199 T01390089

VFR

13.9°C / 8.9°C

[Meer]
Wind 200º 4kt
Zicht >10km
Weer -
Wolken Broken Clouds 6000ft
Overcast 11000ft
Luchtdruk 1019
Wijzigen -
Ruw KRNT 160253Z AUTO 20004KT 10SM BKN060 OVC110 14/09 A3010 RMK AO2 SLP198 T01390089 56005

VFR

13.9°C / 8.9°C

[Meer]
Wind variable 0kt
Zicht >10km
Weer -
Wolken Overcast 11000ft
Luchtdruk 1020
Wijzigen -
Ruw KRNT 160153Z 00000KT 10SM OVC110 14/09 A3011 RMK AO2 SLP200 T01390089

VFR

14.4°C / 8.9°C

[Meer]
Wind variable 0kt
Zicht >10km
Weer -
Wolken Broken Clouds 12000ft
Luchtdruk 1020
Wijzigen -
Ruw KRNT 160053Z 00000KT 10SM BKN120 14/09 A3011 RMK AO2 SLP201 T01440089

VFR

16.1°C / 7.2°C

[Meer]
Wind variable 0kt
Zicht >10km
Weer -
Wolken Overcast 12000ft
Luchtdruk 1020
Wijzigen -
Ruw KRNT 152353Z 00000KT 10SM OVC120 16/07 A3012 RMK AO2 SLP203 T01610072 10167 20133 56008

VFR

16.7°C / 7.8°C

[Meer]
Wind 220º 3kt
Zicht >10km
Weer -
Wolken Few Clouds 4700ft
Scattered Clouds 6000ft
Luchtdruk 1020
Wijzigen -
Ruw KRNT 152253Z 22003KT 10SM FEW047 SCT060 17/08 A3012 RMK AO2 SLP206 T01670078

VFR

16.1°C / 8.3°C

[Meer]
Wind 190º 7kt
Zicht >10km
Weer -
Wolken Few Clouds 11000ft
Luchtdruk 1020
Wijzigen -
Ruw KRNT 152153Z 19007KT 10SM FEW110 16/08 A3013 RMK AO2 SLP207 T01610083

Huidige satellietbeelden voor Renton, Verenigde Staten

De locatiemarkering is geplaatst op Renton. [Meer]

Het realtime satellietbeeld combineert zichtbaar licht overdag met infraroodstraling 's nachts. 's Nachts is het beeld niet donker, omdat infraroodstraling temperatuurverschillen kan waarnemen. Helaas zijn lage wolken en mist moeilijk te onderscheiden van grondtemperaturen en kunnen dus 's nachts bijna onzichtbaar zijn. Meteosat-satellietbeelden voor Europa worden elke 5 minuten in real time bijgewerkt. De beelden van GOES-16/GOES-17 (Noord- en Zuid-Amerika) en Himawari (Azië) worden om de 10 minuten bijgewerkt.

Radar en neerslag nowcast voor Renton

Motregen
Licht
Matig
Zwaar
Zeer zwaar
Hail

De locatiemarkering wordt geplaatst op Renton. Deze animation toont de neerslag radar van het afgelopen uur, maar ook de 1h verwachting. Motregen of lichte sneeuwval kan onzichtbaar zijn voor de radar. De neerslagintensiteit wordt met kleuren gecodeerd, van lichtblauw tot oranje.